createdAt,value
2024-01-31T00:00:58.687Z,4.96
2024-01-31T00:04:03.476Z,4.96
2024-01-31T00:07:08.768Z,4.73
2024-01-31T00:10:21.335Z,4.99
2024-01-31T00:13:26.631Z,4.95
2024-01-31T00:16:30.390Z,5.62
2024-01-31T00:19:34.316Z,5.17
2024-01-31T00:22:39.978Z,5.02
2024-01-31T00:25:43.894Z,5.04
2024-01-31T00:28:47.528Z,5.05
2024-01-31T00:31:51.316Z,5.05
2024-01-31T00:34:54.974Z,5.10
2024-01-31T00:37:59.912Z,5.09
2024-01-31T00:41:03.315Z,5.12
2024-01-31T00:44:06.903Z,5.25
2024-01-31T00:47:11.605Z,5.11
2024-01-31T00:50:15.713Z,5.23
2024-01-31T00:53:20.894Z,5.54
2024-01-31T00:56:25.299Z,5.78
2024-01-31T00:59:28.967Z,5.59
2024-01-31T01:02:32.543Z,5.57
2024-01-31T01:05:38.198Z,5.61
2024-01-31T01:08:43.929Z,5.47
2024-01-31T01:11:47.786Z,5.58
2024-01-31T01:14:53.042Z,5.67
2024-01-31T01:18:00.049Z,5.75
2024-01-31T01:21:05.670Z,6.03
2024-01-31T01:24:10.867Z,5.93
2024-01-31T01:27:14.701Z,6.20
2024-01-31T01:30:18.723Z,6.50
2024-01-31T01:33:22.368Z,6.39
2024-01-31T01:36:26.094Z,6.58
2024-01-31T01:39:31.354Z,6.64
2024-01-31T01:42:39.927Z,6.81
2024-01-31T01:45:43.593Z,6.84
2024-01-31T01:48:47.895Z,6.95
2024-01-31T01:51:52.554Z,7.05
2024-01-31T01:54:57.893Z,7.00
2024-01-31T01:58:02.487Z,6.88
2024-01-31T02:01:06.483Z,6.80
2024-01-31T02:04:30.821Z,6.65
2024-01-31T02:07:54.894Z,6.96
2024-01-31T02:11:19.506Z,6.66
2024-01-31T02:14:42.771Z,6.87
2024-01-31T02:18:06.533Z,6.86
2024-01-31T02:21:30.049Z,6.67
2024-01-31T02:24:54.633Z,6.73
2024-01-31T02:28:18.136Z,6.82
2024-01-31T02:31:41.616Z,6.50
2024-01-31T02:35:05.395Z,6.55
2024-01-31T02:38:28.661Z,6.79
2024-01-31T02:41:46.296Z,6.62
2024-01-31T02:45:10.575Z,6.88
2024-01-31T02:48:33.894Z,6.88
2024-01-31T02:51:57.877Z,6.90
2024-01-31T02:55:21.394Z,6.89
2024-01-31T02:58:46.027Z,6.84
2024-01-31T03:02:09.403Z,6.87
2024-01-31T03:05:32.564Z,6.84
2024-01-31T03:08:44.501Z,6.59
2024-01-31T03:12:08.294Z,7.04
2024-01-31T03:15:32.898Z,6.74
2024-01-31T03:18:58.310Z,6.91
2024-01-31T03:22:21.913Z,7.16
2024-01-31T03:25:45.598Z,7.15
2024-01-31T03:29:09.127Z,7.17
2024-01-31T03:32:33.867Z,7.07
2024-01-31T03:35:57.208Z,7.11
2024-01-31T03:39:20.986Z,7.17
2024-01-31T03:42:44.387Z,7.28
2024-01-31T03:46:08.628Z,7.22
2024-01-31T03:49:33.468Z,6.99
2024-01-31T03:52:56.767Z,6.93
2024-01-31T03:56:20.153Z,7.14
2024-01-31T03:59:43.483Z,7.00
2024-01-31T04:03:06.814Z,6.78
2024-01-31T04:06:31.264Z,6.92
2024-01-31T04:09:54.552Z,6.90
2024-01-31T04:13:17.902Z,6.98
2024-01-31T04:16:41.260Z,7.08
2024-01-31T04:20:05.360Z,7.05
2024-01-31T04:23:30.540Z,6.89
2024-01-31T04:26:53.929Z,7.05
2024-01-31T04:30:17.400Z,7.10
2024-01-31T04:34:52.241Z,6.62
2024-01-31T04:38:16.051Z,6.56
2024-01-31T04:41:39.407Z,6.91
2024-01-31T04:45:03.333Z,6.81
2024-01-31T04:48:27.690Z,6.68
2024-01-31T04:51:52.423Z,6.54
2024-01-31T04:55:16.050Z,6.63
2024-01-31T04:58:40.809Z,6.30
2024-01-31T05:02:04.419Z,6.25
2024-01-31T05:05:28.653Z,6.26
2024-01-31T05:08:53.886Z,6.54
2024-01-31T05:12:17.368Z,6.69
2024-01-31T05:15:41.404Z,6.71
2024-01-31T05:19:04.721Z,6.14
2024-01-31T05:22:28.496Z,6.57
2024-01-31T05:25:53.156Z,6.40
2024-01-31T05:29:16.751Z,6.39
2024-01-31T05:32:40.034Z,6.55
2024-01-31T05:36:03.962Z,6.37
2024-01-31T05:39:27.232Z,6.50
2024-01-31T05:42:53.728Z,6.34
2024-01-31T05:46:18.482Z,6.35
2024-01-31T05:49:42.028Z,6.27
2024-01-31T05:53:05.802Z,6.22
2024-01-31T05:56:29.069Z,6.32
2024-01-31T05:59:53.765Z,6.43
2024-01-31T06:03:17.245Z,6.60
2024-01-31T06:06:40.490Z,6.67
2024-01-31T06:10:04.455Z,6.85
2024-01-31T06:13:28.050Z,6.75
2024-01-31T06:16:52.802Z,6.69
2024-01-31T06:20:16.233Z,6.63
2024-01-31T06:23:40.426Z,6.63
2024-01-31T06:27:03.955Z,6.61
2024-01-31T06:30:32.813Z,6.55
2024-01-31T06:33:57.350Z,6.09
2024-01-31T06:37:20.865Z,6.50
2024-01-31T06:40:44.209Z,6.46
2024-01-31T06:44:07.557Z,6.38
2024-01-31T06:47:30.933Z,6.36
2024-01-31T06:50:55.895Z,6.28
2024-01-31T06:54:19.720Z,6.20
2024-01-31T06:57:43.884Z,6.16
2024-01-31T07:01:07.264Z,6.16
2024-01-31T07:04:31.155Z,6.12
2024-01-31T07:07:56.200Z,6.21
2024-01-31T07:11:21.266Z,6.19
2024-01-31T07:14:32.982Z,6.28
2024-01-31T07:17:56.315Z,6.05
2024-01-31T07:21:25.741Z,6.02
2024-01-31T07:24:51.056Z,5.64
2024-01-31T07:28:14.758Z,5.88
2024-01-31T07:31:38.076Z,6.01
2024-01-31T07:35:01.564Z,5.92
2024-01-31T07:38:24.948Z,5.92
2024-01-31T07:41:50.083Z,5.81
2024-01-31T07:45:13.702Z,5.96
2024-01-31T07:48:37.168Z,6.11
2024-01-31T07:52:00.783Z,5.99
2024-01-31T07:55:26.749Z,5.94
2024-01-31T07:58:51.511Z,5.84
2024-01-31T08:02:15.019Z,5.95
2024-01-31T08:05:37.228Z,5.84
2024-01-31T08:09:07.902Z,5.96
2024-01-31T08:12:37.646Z,6.02
2024-01-31T08:16:02.890Z,6.04
2024-01-31T08:19:26.466Z,5.95
2024-01-31T08:22:50.069Z,5.92
2024-01-31T08:26:19.240Z,5.94
2024-01-31T08:29:42.643Z,5.93
2024-01-31T08:33:07.619Z,5.95
2024-01-31T08:36:30.995Z,5.90
2024-01-31T08:39:56.686Z,5.71
2024-01-31T08:43:20.986Z,5.98
2024-01-31T08:46:53.608Z,5.96
2024-01-31T08:56:05.290Z,6.50
2024-01-31T08:59:52.676Z,6.73
2024-01-31T09:03:48.814Z,5.38
2024-01-31T09:07:30.124Z,6.18
2024-01-31T09:11:15.571Z,6.21
2024-01-31T09:15:23.070Z,6.26
2024-01-31T09:23:12.001Z,6.25
2024-01-31T09:26:41.365Z,6.27
2024-01-31T09:30:06.508Z,6.45
2024-01-31T09:33:33.430Z,6.70
2024-01-31T09:36:57.365Z,6.59
2024-01-31T09:40:25.626Z,6.47
2024-01-31T09:43:52.789Z,6.51
2024-01-31T09:47:16.810Z,6.47
2024-01-31T09:50:40.293Z,6.49
2024-01-31T09:54:03.966Z,6.53
2024-01-31T09:57:29.127Z,6.57
2024-01-31T10:00:59.332Z,6.68
2024-01-31T10:04:24.142Z,6.66
2024-01-31T10:07:47.458Z,6.62
2024-01-31T10:11:10.988Z,6.89
2024-01-31T10:14:35.199Z,7.10
2024-01-31T10:18:00.297Z,6.96
2024-01-31T10:21:23.906Z,7.17
2024-01-31T10:24:48.255Z,7.05
2024-01-31T10:28:15.522Z,7.27
2024-01-31T10:35:14.417Z,7.19
2024-01-31T10:38:43.740Z,7.08
2024-01-31T10:42:07.483Z,7.02
2024-01-31T10:45:35.213Z,7.23
2024-01-31T10:48:59.239Z,7.42
2024-01-31T10:52:34.395Z,7.32
2024-01-31T10:55:59.453Z,7.69
2024-01-31T10:59:23.290Z,7.54
2024-01-31T11:02:47.819Z,7.43
2024-01-31T11:06:05.753Z,7.49
2024-01-31T11:09:30.632Z,7.50
2024-01-31T11:13:03.117Z,7.51
2024-01-31T11:16:26.540Z,7.50
2024-01-31T11:19:52.653Z,7.54
2024-01-31T11:23:17.417Z,7.64
2024-01-31T11:26:42.212Z,7.73
2024-01-31T11:30:11.322Z,7.66
2024-01-31T11:33:36.226Z,7.79
2024-01-31T11:36:59.909Z,7.77
2024-01-31T11:40:23.389Z,7.86
2024-01-31T11:43:48.169Z,7.83
2024-01-31T11:47:11.729Z,7.86
2024-01-31T11:50:35.308Z,7.91
2024-01-31T11:53:59.437Z,7.94
2024-01-31T11:57:25.333Z,7.94
2024-01-31T12:00:50.496Z,8.03
2024-01-31T12:04:16.836Z,8.23
2024-01-31T12:07:44.544Z,8.28
2024-01-31T12:11:05.085Z,8.08
2024-01-31T12:14:57.076Z,7.59
2024-01-31T12:18:23.764Z,8.18
2024-01-31T12:21:47.513Z,8.13
2024-01-31T12:25:33.490Z,8.19
2024-01-31T12:34:25.128Z,8.15
2024-01-31T12:38:13.459Z,8.25
2024-01-31T12:42:32.714Z,8.23
2024-01-31T12:47:04.799Z,8.17
2024-01-31T12:50:47.697Z,8.25
2024-01-31T12:54:47.741Z,8.24
2024-01-31T12:58:41.782Z,8.23
2024-01-31T13:02:12.399Z,8.18
2024-01-31T13:05:37.855Z,8.38
2024-01-31T13:09:01.533Z,8.22
2024-01-31T13:12:25.817Z,8.18
2024-01-31T13:15:49.726Z,8.24
2024-01-31T13:19:15.146Z,8.36
2024-01-31T13:22:39.912Z,8.35
2024-01-31T13:26:02.957Z,8.33
2024-01-31T13:29:26.549Z,8.32
2024-01-31T13:32:50.142Z,8.41
2024-01-31T13:36:14.167Z,8.48
2024-01-31T13:39:38.851Z,8.63
2024-01-31T13:43:02.251Z,8.77
2024-01-31T13:46:26.718Z,8.54
2024-01-31T13:49:50.602Z,8.52
2024-01-31T13:53:13.972Z,8.61
2024-01-31T13:56:39.336Z,8.42
2024-01-31T14:00:07.885Z,8.41
2024-01-31T14:03:33.201Z,8.32
2024-01-31T14:06:56.583Z,8.29
2024-01-31T14:10:19.897Z,8.41
2024-01-31T14:13:44.635Z,8.50
2024-01-31T14:17:07.904Z,8.36
2024-01-31T14:20:31.297Z,8.43
2024-01-31T14:24:01.108Z,8.45
2024-01-31T14:27:32.546Z,8.43
2024-01-31T14:30:57.319Z,8.41
2024-01-31T14:34:20.976Z,8.31
2024-01-31T14:37:44.395Z,8.30
2024-01-31T14:41:07.730Z,8.46
2024-01-31T14:44:27.280Z,8.39
2024-01-31T14:47:54.795Z,8.36
2024-01-31T14:51:18.180Z,8.45
2024-01-31T14:54:41.552Z,8.27
2024-01-31T14:58:05.401Z,8.29
2024-01-31T15:01:28.691Z,8.20
2024-01-31T15:04:53.800Z,8.03
2024-01-31T15:08:17.157Z,8.06
2024-01-31T15:11:41.207Z,8.12
2024-01-31T15:15:08.116Z,8.04
2024-01-31T15:18:31.705Z,8.24
2024-01-31T15:21:56.457Z,8.19
2024-01-31T15:25:20.093Z,8.22
2024-01-31T15:28:43.379Z,8.17
2024-01-31T15:32:10.916Z,8.21
2024-01-31T15:35:35.711Z,7.91
2024-01-31T15:39:02.394Z,8.00
2024-01-31T15:42:25.916Z,8.24
2024-01-31T15:45:49.874Z,8.39
2024-01-31T15:49:13.235Z,8.14
2024-01-31T15:52:36.688Z,8.35
2024-01-31T15:56:02.732Z,7.86
2024-01-31T15:59:28.272Z,7.91
2024-01-31T16:02:52.422Z,7.81
2024-01-31T16:06:16.013Z,7.89
2024-01-31T16:09:39.379Z,8.06
2024-01-31T16:13:04.275Z,7.59
2024-01-31T16:16:27.613Z,7.73
2024-01-31T16:19:51.116Z,7.71
2024-01-31T16:23:15.825Z,7.48
2024-01-31T16:26:40.073Z,7.56
2024-01-31T16:30:06.237Z,7.49
2024-01-31T16:34:51.687Z,7.47
2024-01-31T16:38:16.876Z,7.60
2024-01-31T16:41:40.312Z,7.61
2024-01-31T16:45:03.635Z,7.14
2024-01-31T16:48:28.634Z,7.31
2024-01-31T16:51:53.413Z,7.53
2024-01-31T16:55:16.819Z,7.67
2024-01-31T16:58:40.133Z,7.74
2024-01-31T17:02:04.028Z,7.79
2024-01-31T17:05:27.544Z,7.45
2024-01-31T17:08:53.343Z,7.44
2024-01-31T17:12:16.834Z,7.51
2024-01-31T17:15:40.753Z,7.35
2024-01-31T17:19:05.607Z,7.17
2024-01-31T17:22:29.476Z,7.21
2024-01-31T17:25:54.137Z,7.38
2024-01-31T17:29:17.385Z,7.21
2024-01-31T17:32:40.846Z,7.22
2024-01-31T17:36:04.377Z,7.12
2024-01-31T17:39:28.180Z,7.24
2024-01-31T17:42:53.156Z,7.16
2024-01-31T17:46:22.888Z,7.06
2024-01-31T17:49:46.331Z,6.94
2024-01-31T17:53:10.249Z,6.90
2024-01-31T17:56:33.539Z,6.97
2024-01-31T17:59:58.337Z,7.02
2024-01-31T18:03:21.716Z,7.02
2024-01-31T18:06:47.019Z,6.87
2024-01-31T18:10:11.446Z,7.00
2024-01-31T18:13:35.350Z,7.03
2024-01-31T18:17:00.101Z,7.21
2024-01-31T18:20:23.386Z,6.93
2024-01-31T18:23:47.246Z,6.86
2024-01-31T18:27:10.647Z,6.71
2024-01-31T18:30:34.549Z,6.90
2024-01-31T18:34:00.128Z,6.87
2024-01-31T18:37:24.022Z,6.91
2024-01-31T18:40:47.875Z,6.89
2024-01-31T18:44:11.205Z,6.72
2024-01-31T18:47:36.766Z,6.69
2024-01-31T18:51:01.824Z,6.72
2024-01-31T18:54:25.173Z,6.65
2024-01-31T18:57:48.512Z,6.70
2024-01-31T19:01:12.274Z,6.62
2024-01-31T19:04:35.653Z,6.49
2024-01-31T19:08:00.171Z,6.53
2024-01-31T19:11:26.427Z,6.34
2024-01-31T19:14:50.825Z,6.26
2024-01-31T19:18:14.728Z,6.19
2024-01-31T19:21:38.136Z,6.21
2024-01-31T19:25:03.313Z,6.11
2024-01-31T19:28:28.108Z,6.18
2024-01-31T19:31:51.857Z,5.85
2024-01-31T19:35:16.071Z,6.04
2024-01-31T19:38:27.322Z,6.06
2024-01-31T19:41:51.971Z,5.85
2024-01-31T19:45:15.437Z,5.82
2024-01-31T19:48:38.840Z,5.87
2024-01-31T19:52:02.202Z,5.75
2024-01-31T19:55:25.318Z,5.68
2024-01-31T19:58:49.915Z,5.90
2024-01-31T20:02:13.244Z,5.50
2024-01-31T20:05:36.561Z,5.66
2024-01-31T20:08:59.952Z,5.63
2024-01-31T20:12:23.238Z,5.47
2024-01-31T20:15:47.910Z,5.46
2024-01-31T20:19:11.819Z,5.41
2024-01-31T20:22:37.727Z,5.58
2024-01-31T20:26:01.029Z,5.64
2024-01-31T20:29:24.543Z,5.62
2024-01-31T20:32:49.317Z,5.40
2024-01-31T20:36:16.507Z,5.91
2024-01-31T20:39:42.325Z,5.55
2024-01-31T20:43:07.710Z,5.65
2024-01-31T20:46:31.972Z,5.52
2024-01-31T20:49:56.677Z,5.54
2024-01-31T20:53:20.056Z,5.71
2024-01-31T20:56:43.331Z,5.73
2024-01-31T21:00:07.883Z,5.83
2024-01-31T21:03:31.172Z,5.89
2024-01-31T21:06:57.219Z,5.82
2024-01-31T21:10:24.020Z,5.71
2024-01-31T21:13:47.516Z,5.81
2024-01-31T21:17:10.960Z,5.73
2024-01-31T21:20:34.548Z,6.20
2024-01-31T21:24:00.623Z,6.30
2024-01-31T21:27:24.962Z,6.11
2024-01-31T21:30:50.896Z,6.17
2024-01-31T21:34:14.770Z,6.23
2024-01-31T21:37:38.264Z,6.05
2024-01-31T21:41:02.969Z,6.04
2024-01-31T21:44:26.311Z,5.92
2024-01-31T21:47:50.379Z,5.94
2024-01-31T21:51:13.938Z,6.04
2024-01-31T21:54:37.289Z,6.12
2024-01-31T21:58:01.841Z,6.04
2024-01-31T22:01:25.492Z,6.10
2024-01-31T22:04:49.016Z,6.12
2024-01-31T22:08:12.357Z,6.10
2024-01-31T22:11:35.678Z,6.15
2024-01-31T22:15:01.889Z,6.06
2024-01-31T22:18:25.492Z,6.15
2024-01-31T22:21:48.915Z,6.06
2024-01-31T22:25:12.172Z,6.09
2024-01-31T22:28:35.931Z,6.05
2024-01-31T22:35:03.801Z,6.01
2024-01-31T22:38:27.659Z,6.14
2024-01-31T22:41:51.386Z,5.89
2024-01-31T22:45:14.741Z,6.22
2024-01-31T22:48:38.421Z,6.16
2024-01-31T22:52:07.407Z,6.28
2024-01-31T22:55:31.012Z,6.27
2024-01-31T22:58:54.621Z,6.42
2024-01-31T23:02:18.351Z,6.27
2024-01-31T23:05:42.048Z,6.42
2024-01-31T23:09:07.463Z,6.44
2024-01-31T23:12:30.866Z,6.47
2024-01-31T23:15:54.270Z,6.43
2024-01-31T23:19:17.670Z,6.42
2024-01-31T23:22:41.003Z,6.42
2024-01-31T23:26:06.091Z,6.11
2024-01-31T23:29:29.443Z,6.40
2024-01-31T23:32:52.964Z,6.37
2024-01-31T23:36:16.434Z,6.41
2024-01-31T23:39:39.940Z,6.24
2024-01-31T23:43:04.895Z,6.37
2024-01-31T23:46:28.524Z,6.29
2024-01-31T23:49:52.035Z,6.21
2024-01-31T23:53:15.625Z,6.43
2024-01-31T23:56:28.212Z,6.46
2024-01-31T23:59:53.643Z,6.56
